Weather at London Heathrow Airport

Public forecast

Using degrees Celsius for public forecast. Weather courtesy of forecast.io.

Current aviation weather report (METAR) for London Heathrow Airport

Retrieved 2022/05/23 07:20 UTC (15 minutes ago):

EGLL 230720Z AUTO 28005KT 9999 NCD 15/11 Q1003 NOSIG

Aviation forecast (TAF) for London Heathrow Airport

Retrieved 2022/05/23 06:00 UTC (2 hours ago):

TAF EGLL 230458Z 2306/2412 30005KT 9999 SCT040 PROB30 TEMPO 2309/2313 7000 RA TEMPO 2317/2412 7000 SHRA PROB30 TEMPO 2400/2412 4000 +SHRA PROB30 TEMPO 2400/2407 BKN013